createdAt,value
2019-02-06T00:01:40.776Z,102358.77
2019-02-06T00:04:48.161Z,102363.17
2019-02-06T00:07:52.463Z,102367.77
2019-02-06T00:10:56.891Z,102369.20
2019-02-06T00:14:01.173Z,102364.95
2019-02-06T00:17:06.051Z,102359.42
2019-02-06T00:20:10.733Z,102350.85
2019-02-06T00:23:15.015Z,102357.36
2019-02-06T00:26:19.341Z,102357.42
2019-02-06T00:29:23.629Z,102363.94
2019-02-06T00:32:27.941Z,102357.97
2019-02-06T00:35:32.222Z,102352.70
2019-02-06T00:38:36.677Z,102352.13
2019-02-06T00:41:41.181Z,102350.08
2019-02-06T00:44:45.463Z,102349.28
2019-02-06T00:47:49.882Z,102343.08
2019-02-06T00:50:54.459Z,102339.81
2019-02-06T00:53:58.747Z,102336.66
2019-02-06T00:57:06.026Z,102333.02
2019-02-06T01:00:16.121Z,102330.30
2019-02-06T01:03:20.593Z,102335.19
2019-02-06T01:06:24.976Z,102332.69
2019-02-06T01:09:29.251Z,102334.70
2019-02-06T01:12:33.551Z,102324.51
2019-02-06T01:15:37.825Z,102323.61
2019-02-06T01:18:42.143Z,102318.80
2019-02-06T01:21:46.607Z,102319.30
2019-02-06T01:24:50.883Z,102321.49
2019-02-06T01:27:55.195Z,102316.59
2019-02-06T01:31:10.539Z,102313.34
2019-02-06T01:34:14.834Z,102306.24
2019-02-06T01:37:19.129Z,102318.47
2019-02-06T01:40:27.503Z,102312.82
2019-02-06T01:43:34.063Z,102309.30
2019-02-06T01:46:38.557Z,102309.30
2019-02-06T01:49:44.813Z,102309.32
2019-02-06T01:52:49.551Z,102307.08
2019-02-06T01:55:53.857Z,102300.67
2019-02-06T01:58:58.323Z,102300.58
2019-02-06T02:02:02.618Z,102301.51
2019-02-06T02:05:07.138Z,102305.23
2019-02-06T02:08:11.714Z,102306.88
2019-02-06T02:11:16.178Z,102288.30
2019-02-06T02:14:20.442Z,102287.02
2019-02-06T02:17:25.004Z,102283.80
2019-02-06T02:20:32.091Z,102279.36
2019-02-06T02:23:36.367Z,102285.42
2019-02-06T02:26:40.667Z,102287.98
2019-02-06T02:29:46.750Z,102283.72
2019-02-06T02:32:51.166Z,102268.20
2019-02-06T02:35:55.713Z,102263.30
2019-02-06T02:39:00.054Z,102264.67
2019-02-06T02:42:04.350Z,102268.03
2019-02-06T02:45:10.606Z,102260.02
2019-02-06T02:48:14.935Z,102260.56
2019-02-06T02:51:19.222Z,102256.20
2019-02-06T02:54:23.785Z,102253.31
2019-02-06T02:57:28.129Z,102253.21
2019-02-06T03:00:51.872Z,102246.87
2019-02-06T03:04:07.260Z,102235.88
2019-02-06T03:07:11.641Z,102224.44
2019-02-06T03:10:16.057Z,102226.80
2019-02-06T03:13:20.488Z,102223.02
2019-02-06T03:16:24.870Z,102215.99
2019-02-06T03:19:29.150Z,102212.28
2019-02-06T03:22:33.529Z,102205.55
2019-02-06T03:25:37.899Z,102203.05
2019-02-06T03:28:42.294Z,102196.29
2019-02-06T03:31:46.588Z,102191.13
2019-02-06T03:34:50.870Z,102190.30
2019-02-06T03:37:56.049Z,102191.52
2019-02-06T03:41:00.439Z,102189.82
2019-02-06T03:44:04.992Z,102180.91
2019-02-06T03:47:09.381Z,102177.80
2019-02-06T03:50:15.779Z,102169.70
2019-02-06T03:53:20.272Z,102158.77
2019-02-06T03:56:24.815Z,102167.06
2019-02-06T03:59:31.048Z,102156.98
2019-02-06T04:02:35.425Z,102155.16
2019-02-06T04:05:39.761Z,102156.55
2019-02-06T04:08:44.047Z,102143.81
2019-02-06T04:11:48.375Z,102147.81
2019-02-06T04:14:52.659Z,102139.27
2019-02-06T04:17:56.971Z,102123.72
2019-02-06T04:21:01.485Z,102119.36
2019-02-06T04:24:05.997Z,102119.91
2019-02-06T04:27:10.317Z,102108.80
2019-02-06T04:30:15.473Z,102103.52
2019-02-06T04:33:21.306Z,102089.09
2019-02-06T04:36:25.669Z,102086.55
2019-02-06T04:39:29.963Z,102085.66
2019-02-06T04:42:36.788Z,102076.81
2019-02-06T04:45:41.459Z,102072.52
2019-02-06T04:48:45.723Z,102064.34
2019-02-06T04:51:50.183Z,102059.34
2019-02-06T04:54:54.868Z,102060.42
2019-02-06T04:57:59.165Z,102057.44
2019-02-06T05:01:03.610Z,102049.16
2019-02-06T05:04:08.469Z,102032.82
2019-02-06T05:07:19.447Z,102034.47
2019-02-06T05:10:21.719Z,102019.03
2019-02-06T05:13:26.013Z,102013.08
2019-02-06T05:16:30.551Z,102007.96
2019-02-06T05:19:34.837Z,102013.08
2019-02-06T05:22:39.150Z,102017.33
2019-02-06T05:25:43.550Z,102010.51
2019-02-06T05:28:47.830Z,102016.45
2019-02-06T05:31:52.160Z,102015.12
2019-02-06T05:34:57.536Z,102003.27
2019-02-06T05:38:01.996Z,101995.36
2019-02-06T05:41:07.328Z,101985.70
2019-02-06T05:44:11.619Z,101981.71
2019-02-06T05:47:17.032Z,101978.88
2019-02-06T05:50:21.437Z,101976.45
2019-02-06T05:53:25.909Z,101975.33
2019-02-06T05:56:30.274Z,101970.67
2019-02-06T05:59:34.688Z,101965.86
2019-02-06T06:02:39.055Z,101952.95
2019-02-06T06:05:43.447Z,101944.84
2019-02-06T06:08:47.804Z,101940.89
2019-02-06T06:11:52.111Z,101939.08
2019-02-06T06:14:56.481Z,101939.09
2019-02-06T06:18:00.960Z,101935.64
2019-02-06T06:21:05.247Z,101931.95
2019-02-06T06:24:09.541Z,101920.35
2019-02-06T06:27:14.133Z,101915.49
2019-02-06T06:30:19.535Z,101914.07
2019-02-06T06:33:23.840Z,101916.75
2019-02-06T06:36:28.290Z,101914.98
2019-02-06T06:39:32.578Z,101912.81
2019-02-06T06:42:36.941Z,101911.05
2019-02-06T06:45:41.815Z,101901.38
2019-02-06T06:48:49.083Z,101893.41
2019-02-06T06:51:53.473Z,101891.19
2019-02-06T06:54:57.785Z,101887.29
2019-02-06T06:58:02.067Z,101880.48
2019-02-06T07:01:06.364Z,101878.15
2019-02-06T07:04:10.693Z,101879.80
2019-02-06T07:07:17.778Z,101873.70
2019-02-06T07:10:22.097Z,101869.30
2019-02-06T07:13:26.381Z,101863.32
2019-02-06T07:16:33.677Z,101849.77
2019-02-06T07:19:38.027Z,101850.87
2019-02-06T07:22:42.333Z,101848.55
2019-02-06T07:25:46.653Z,101850.30
2019-02-06T07:28:51.173Z,101858.70
2019-02-06T07:31:55.593Z,101853.22
2019-02-06T07:34:59.927Z,101854.08
2019-02-06T07:38:06.074Z,101845.81
2019-02-06T07:41:10.556Z,101851.41
2019-02-06T07:44:14.846Z,101846.36
2019-02-06T07:47:19.253Z,101852.70
2019-02-06T07:50:26.049Z,101843.28
2019-02-06T07:53:30.829Z,101848.09
2019-02-06T07:56:35.245Z,101855.55
2019-02-06T07:59:39.535Z,101853.63
2019-02-06T08:02:44.415Z,101863.09
2019-02-06T08:05:48.982Z,101865.23
2019-02-06T08:08:53.473Z,101861.41
2019-02-06T08:11:58.241Z,101870.09
2019-02-06T08:15:02.817Z,101866.65
2019-02-06T08:18:07.772Z,101863.02
2019-02-06T08:21:15.133Z,101859.67
2019-02-06T08:24:19.545Z,101869.69
2019-02-06T08:27:26.310Z,101875.17
2019-02-06T08:30:35.320Z,101872.91
2019-02-06T08:33:39.711Z,101868.97
2019-02-06T08:36:44.021Z,101858.86
2019-02-06T08:39:48.304Z,101860.94
2019-02-06T08:42:52.809Z,101852.43
2019-02-06T08:45:57.177Z,101851.81
2019-02-06T08:49:04.071Z,101845.84
2019-02-06T08:52:08.393Z,101842.81
2019-02-06T08:55:15.695Z,101839.64
2019-02-06T08:58:20.088Z,101841.50
2019-02-06T09:01:24.762Z,101830.06
2019-02-06T09:04:29.153Z,101829.13
2019-02-06T09:07:33.430Z,101828.73
2019-02-06T09:10:38.277Z,101824.39
2019-02-06T09:13:42.554Z,101818.02
2019-02-06T09:16:46.850Z,101816.92
2019-02-06T09:19:51.435Z,101809.95
2019-02-06T09:22:56.651Z,101811.12
2019-02-06T09:26:01.159Z,101802.84
2019-02-06T09:29:06.013Z,101801.58
2019-02-06T09:32:10.525Z,101801.52
2019-02-06T09:35:15.149Z,101802.48
2019-02-06T09:38:22.595Z,101801.25
2019-02-06T09:41:26.891Z,101805.29
2019-02-06T09:44:31.181Z,101803.97
2019-02-06T09:47:35.515Z,101808.24
2019-02-06T09:50:39.838Z,101811.78
2019-02-06T09:53:44.207Z,101814.38
2019-02-06T09:56:50.637Z,101810.59
2019-02-06T09:59:54.515Z,101795.97
2019-02-06T10:02:58.823Z,101793.46
2019-02-06T10:06:03.159Z,101786.80
2019-02-06T10:09:09.346Z,101785.61
2019-02-06T10:12:13.629Z,101784.10
2019-02-06T10:15:20.730Z,101786.60
2019-02-06T10:18:28.275Z,101782.33
2019-02-06T10:21:32.669Z,101781.34
2019-02-06T10:24:37.107Z,101782.13
2019-02-06T10:27:41.413Z,101780.31
2019-02-06T10:30:47.980Z,101766.99
2019-02-06T10:33:52.381Z,101764.36
2019-02-06T10:36:56.737Z,101762.50
2019-02-06T10:40:01.133Z,101760.50
2019-02-06T10:43:06.017Z,101756.60
2019-02-06T10:46:10.790Z,101756.86
2019-02-06T10:49:15.345Z,101747.63
2019-02-06T10:52:19.646Z,101753.25
2019-02-06T10:55:24.243Z,101747.56
2019-02-06T10:58:28.758Z,101739.52
2019-02-06T11:01:33.153Z,101735.83
2019-02-06T11:04:37.957Z,101734.25
2019-02-06T11:07:42.267Z,101731.25
2019-02-06T11:10:46.948Z,101727.29
2019-02-06T11:13:51.636Z,101725.23
2019-02-06T11:16:57.193Z,101721.28
2019-02-06T11:20:01.512Z,101708.88
2019-02-06T11:23:07.440Z,101714.45
2019-02-06T11:26:11.838Z,101709.88
2019-02-06T11:29:16.149Z,101709.97
2019-02-06T11:32:20.432Z,101711.83
2019-02-06T11:35:24.710Z,101708.66
2019-02-06T11:38:32.073Z,101705.34
2019-02-06T11:41:36.566Z,101704.45
2019-02-06T11:44:40.865Z,101692.18
2019-02-06T11:47:50.186Z,101706.09
2019-02-06T11:50:54.532Z,101693.51
2019-02-06T11:53:58.857Z,101683.41
2019-02-06T11:57:03.159Z,101674.41
2019-02-06T12:00:13.991Z,101673.84
2019-02-06T12:03:22.041Z,101662.90
2019-02-06T12:06:24.971Z,101664.92
2019-02-06T12:09:29.267Z,101667.81
2019-02-06T12:12:33.965Z,101666.37
2019-02-06T12:15:38.234Z,101662.63
2019-02-06T12:18:42.525Z,101652.44
2019-02-06T12:21:47.382Z,101670.46
2019-02-06T12:24:51.654Z,101660.47
2019-02-06T12:27:56.263Z,101662.62
2019-02-06T12:31:01.151Z,101663.02
2019-02-06T12:34:05.451Z,101650.30
2019-02-06T12:37:09.744Z,101655.23
2019-02-06T12:40:21.550Z,101649.53
2019-02-06T12:43:20.639Z,101644.75
2019-02-06T12:46:24.979Z,101648.06
2019-02-06T12:49:29.266Z,101650.48
2019-02-06T12:52:33.555Z,101643.02
2019-02-06T12:55:39.003Z,101651.74
2019-02-06T12:58:43.321Z,101639.89
2019-02-06T13:01:47.648Z,101642.25
2019-02-06T13:04:51.955Z,101644.82
2019-02-06T13:07:56.347Z,101646.20
2019-02-06T13:11:00.680Z,101644.48
2019-02-06T13:14:05.263Z,101636.91
2019-02-06T13:17:09.590Z,101628.95
2019-02-06T13:20:16.880Z,101635.05
2019-02-06T13:23:21.242Z,101624.05
2019-02-06T13:26:25.564Z,101622.42
2019-02-06T13:29:29.909Z,101617.88
2019-02-06T13:32:34.218Z,101619.67
2019-02-06T13:35:41.164Z,101619.05
2019-02-06T13:38:45.456Z,101613.28
2019-02-06T13:41:50.018Z,101610.23
2019-02-06T13:44:57.685Z,101606.28
2019-02-06T13:48:01.945Z,101612.05
2019-02-06T13:51:16.288Z,101601.09
2019-02-06T13:54:12.664Z,101602.39
2019-02-06T13:57:18.244Z,101607.07
2019-02-06T14:00:26.388Z,101601.38
2019-02-06T14:03:30.787Z,101604.89
2019-02-06T14:06:35.236Z,101597.48
2019-02-06T14:09:39.493Z,101590.13
2019-02-06T14:12:43.770Z,101584.50
2019-02-06T14:15:50.707Z,101581.39
2019-02-06T14:18:55.019Z,101576.13
2019-02-06T14:21:59.441Z,101573.48
2019-02-06T14:25:56.848Z,101574.20
2019-02-06T14:29:53.374Z,101574.26
2019-02-06T14:33:41.238Z,101573.48
2019-02-06T14:37:02.097Z,101569.47
2019-02-06T14:40:16.323Z,101573.41
2019-02-06T14:44:06.595Z,101565.94
2019-02-06T14:47:57.638Z,101569.55
2019-02-06T14:51:44.605Z,101569.53
2019-02-06T14:55:11.161Z,101558.14
2019-02-06T14:58:50.620Z,101559.89
2019-02-06T15:02:45.047Z,101558.04
2019-02-06T15:06:39.163Z,101553.41
2019-02-06T15:10:27.127Z,101548.47
2019-02-06T15:13:59.931Z,101549.73
2019-02-06T15:17:36.910Z,101549.77
2019-02-06T15:21:18.944Z,101547.20
2019-02-06T15:24:58.057Z,101551.45
2019-02-06T15:28:33.035Z,101539.25
2019-02-06T15:32:20.254Z,101554.22
2019-02-06T15:35:57.665Z,101551.27
2019-02-06T15:39:40.684Z,101553.24
2019-02-06T15:43:02.835Z,101551.09
2019-02-06T15:46:42.729Z,101552.88
2019-02-06T15:50:03.330Z,101549.30
2019-02-06T15:53:24.276Z,101549.36
2019-02-06T15:57:10.664Z,101551.20
2019-02-06T16:00:48.144Z,101550.67
2019-02-06T16:04:26.622Z,101551.09
2019-02-06T16:08:16.572Z,101549.36
2019-02-06T16:11:48.284Z,101555.09
2019-02-06T16:15:40.725Z,101554.69
2019-02-06T16:19:07.236Z,101563.47
2019-02-06T16:22:39.917Z,101558.16
2019-02-06T16:26:20.991Z,101558.68
2019-02-06T16:30:24.503Z,101561.69
2019-02-06T16:33:57.545Z,101564.44
2019-02-06T16:37:22.367Z,101553.84
2019-02-06T16:40:58.704Z,101559.22
2019-02-06T16:44:29.602Z,101559.11
2019-02-06T16:48:02.945Z,101562.27
2019-02-06T16:51:21.289Z,101561.48
2019-02-06T16:55:15.838Z,101560.17
2019-02-06T16:59:09.764Z,101570.60
2019-02-06T17:03:05.383Z,101568.39
2019-02-06T17:06:56.784Z,101560.06
2019-02-06T17:10:44.414Z,101568.33
2019-02-06T17:14:11.918Z,101561.80
2019-02-06T17:17:29.730Z,101569.70
2019-02-06T17:21:13.312Z,101565.06
2019-02-06T17:24:54.361Z,101562.37
2019-02-06T17:28:47.992Z,101555.31
2019-02-06T17:32:30.310Z,101556.69
2019-02-06T17:36:04.629Z,101555.84
2019-02-06T17:39:42.722Z,101556.73
2019-02-06T17:43:06.249Z,101558.90
2019-02-06T17:46:28.115Z,101555.92
2019-02-06T17:50:19.851Z,101547.09
2019-02-06T17:54:04.944Z,101545.86
2019-02-06T17:57:14.583Z,101546.75
2019-02-06T18:00:28.276Z,101548.92
2019-02-06T18:03:36.455Z,101552.49
2019-02-06T18:06:41.073Z,101554.78
2019-02-06T18:09:45.415Z,101548.11
2019-02-06T18:12:49.717Z,101548.97
2019-02-06T18:15:54.204Z,101551.51
2019-02-06T18:18:58.995Z,101553.39
2019-02-06T18:22:03.470Z,101563.88
2019-02-06T18:25:08.148Z,101552.87
2019-02-06T18:28:12.977Z,101559.94
2019-02-06T18:31:17.459Z,101552.11
2019-02-06T18:34:21.781Z,101551.55
2019-02-06T18:37:26.280Z,101554.28
2019-02-06T18:40:30.780Z,101557.25
2019-02-06T18:43:37.803Z,101570.43
2019-02-06T18:46:42.214Z,101574.43
2019-02-06T18:49:46.572Z,101580.92
2019-02-06T18:52:51.164Z,101573.44
2019-02-06T18:55:55.626Z,101566.98
2019-02-06T18:59:00.131Z,101569.95
2019-02-06T19:02:04.974Z,101558.47
2019-02-06T19:05:11.032Z,101566.74
2019-02-06T19:08:15.649Z,101562.80
2019-02-06T19:11:20.124Z,101554.56
2019-02-06T19:14:24.490Z,101550.94
2019-02-06T19:17:28.857Z,101547.41
2019-02-06T19:20:35.672Z,101553.58
2019-02-06T19:23:39.260Z,101540.91
2019-02-06T19:26:43.955Z,101542.14
2019-02-06T19:29:48.351Z,101543.03
2019-02-06T19:32:52.914Z,101542.19
2019-02-06T19:35:57.272Z,101535.64
2019-02-06T19:39:01.934Z,101536.45
2019-02-06T19:42:06.616Z,101521.10
2019-02-06T19:45:11.713Z,101514.89
2019-02-06T19:48:18.975Z,101497.33
2019-02-06T19:51:22.521Z,101493.38
2019-02-06T19:54:26.921Z,101486.33
2019-02-06T19:57:31.444Z,101490.87
2019-02-06T20:00:37.565Z,101494.75
2019-02-06T20:03:42.448Z,101495.13
2019-02-06T20:06:47.121Z,101491.60
2019-02-06T20:09:51.923Z,101490.70
2019-02-06T20:12:56.958Z,101495.13
2019-02-06T20:16:01.503Z,101489.34
2019-02-06T20:19:06.255Z,101489.00
2019-02-06T20:22:11.092Z,101494.27
2019-02-06T20:25:16.212Z,101490.70
2019-02-06T20:28:20.824Z,101486.28
2019-02-06T20:31:25.904Z,101495.55
2019-02-06T20:34:30.768Z,101503.08
2019-02-06T20:37:35.510Z,101506.47
2019-02-06T20:40:40.271Z,101501.20
2019-02-06T20:43:45.168Z,101486.45
2019-02-06T20:46:52.275Z,101489.90
2019-02-06T20:49:56.855Z,101492.91
2019-02-06T20:53:01.535Z,101495.13
2019-02-06T20:56:06.279Z,101481.86
2019-02-06T20:59:10.882Z,101477.06
2019-02-06T21:02:15.439Z,101466.05
2019-02-06T21:05:20.194Z,101464.31
2019-02-06T21:08:24.719Z,101449.39
2019-02-06T21:11:29.273Z,101445.06
2019-02-06T21:14:33.789Z,101446.76
2019-02-06T21:17:38.261Z,101446.72
2019-02-06T21:20:42.860Z,101441.87
2019-02-06T21:23:47.199Z,101443.23
2019-02-06T21:26:51.598Z,101441.91
2019-02-06T21:29:55.906Z,101448.93
2019-02-06T21:33:00.346Z,101451.09
2019-02-06T21:36:04.873Z,101448.45
2019-02-06T21:39:10.374Z,101451.09
2019-02-06T21:42:14.720Z,101461.25
2019-02-06T21:45:19.369Z,101457.72
2019-02-06T21:48:23.759Z,101453.39
2019-02-06T21:51:28.051Z,101457.34
2019-02-06T21:54:32.734Z,101453.34
2019-02-06T21:57:37.012Z,101445.91
2019-02-06T22:00:42.529Z,101441.45
2019-02-06T22:03:46.840Z,101437.55
2019-02-06T22:06:51.134Z,101433.12
2019-02-06T22:09:56.403Z,101425.64
2019-02-06T22:13:01.240Z,101427.47
2019-02-06T22:16:05.783Z,101421.22
2019-02-06T22:19:10.091Z,101414.20
2019-02-06T22:22:14.555Z,101397.98
2019-02-06T22:25:18.910Z,101396.70
2019-02-06T22:28:23.203Z,101399.72
2019-02-06T22:31:27.510Z,101403.36
2019-02-06T22:34:32.186Z,101402.05
2019-02-06T22:37:36.596Z,101402.81
2019-02-06T22:40:40.946Z,101398.55
2019-02-06T22:43:45.262Z,101398.48
2019-02-06T22:46:49.563Z,101400.65
2019-02-06T22:49:53.988Z,101405.92
2019-02-06T22:52:58.383Z,101400.30
2019-02-06T22:56:02.704Z,101399.33
2019-02-06T22:59:07.011Z,101393.21
2019-02-06T23:02:14.286Z,101389.18
2019-02-06T23:05:18.644Z,101392.75
2019-02-06T23:08:22.950Z,101389.65
2019-02-06T23:11:27.436Z,101391.42
2019-02-06T23:14:31.723Z,101383.45
2019-02-06T23:17:36.030Z,101385.15
2019-02-06T23:20:41.327Z,101375.97
2019-02-06T23:23:46.582Z,101381.81
2019-02-06T23:26:51.210Z,101370.39
2019-02-06T23:29:55.902Z,101360.73
2019-02-06T23:33:00.282Z,101365.55
2019-02-06T23:36:05.228Z,101352.37
2019-02-06T23:39:15.828Z,101348.38
2019-02-06T23:42:20.260Z,101342.26
2019-02-06T23:45:24.620Z,101329.15
2019-02-06T23:48:28.917Z,101321.20
2019-02-06T23:51:33.328Z,101318.17
2019-02-06T23:54:37.731Z,101306.72
2019-02-06T23:57:42.129Z,101301.45
